Air Navigation Services of Czech Republic
Airport: LKNA Updated:  24.07.2021 08:27:28  UTC
 METAR LKNA 24.07. 08:30 ...
METAR LKNA 240830Z 11009KT 080V140 CAVOK 23/11 Q1015 NOSIG RMK BLU BLU=
 TAF LKNA 24.07. 05:00 ...
TAF LKNA 240500Z 2406/2506 06006KT CAVOK      BECMG 2406/2408 11008KT      TEMPO 2411/2418 12014KT      TEMPO 2500/2506 7000 SHRA SCT030TCU      PROB30 TEMPO 2500/2506 4000 TSRA BKN020CB=